sensor_id;sensor_type;location;lat;lon;timestamp;P1;durP1;ratioP1;P2;durP2;ratioP2
75054;SDS011;63636;44.746;10.488;2023-01-31T00:00:56;39.63;;;16.35;;
75054;SDS011;63636;44.746;10.488;2023-01-31T00:03:21;43.40;;;17.88;;
75054;SDS011;63636;44.746;10.488;2023-01-31T00:05:47;40.50;;;17.17;;
75054;SDS011;63636;44.746;10.488;2023-01-31T00:08:12;44.92;;;17.98;;
75054;SDS011;63636;44.746;10.488;2023-01-31T00:10:39;41.70;;;17.25;;
75054;SDS011;63636;44.746;10.488;2023-01-31T00:13:05;45.85;;;19.48;;
75054;SDS011;63636;44.746;10.488;2023-01-31T00:15:31;40.92;;;17.95;;
75054;SDS011;63636;44.746;10.488;2023-01-31T00:17:56;47.10;;;18.75;;
75054;SDS011;63636;44.746;10.488;2023-01-31T00:20:22;46.80;;;19.50;;
75054;SDS011;63636;44.746;10.488;2023-01-31T00:22:48;45.08;;;18.23;;
75054;SDS011;63636;44.746;10.488;2023-01-31T00:25:13;47.97;;;20.13;;
75054;SDS011;63636;44.746;10.488;2023-01-31T00:27:39;46.00;;;19.10;;
75054;SDS011;63636;44.746;10.488;2023-01-31T00:30:04;46.08;;;18.05;;
75054;SDS011;63636;44.746;10.488;2023-01-31T00:32:30;48.95;;;20.13;;
75054;SDS011;63636;44.746;10.488;2023-01-31T00:34:56;45.33;;;18.38;;
75054;SDS011;63636;44.746;10.488;2023-01-31T00:37:21;47.30;;;19.38;;
75054;SDS011;63636;44.746;10.488;2023-01-31T00:39:47;44.90;;;18.95;;
75054;SDS011;63636;44.746;10.488;2023-01-31T00:42:15;45.22;;;19.27;;
75054;SDS011;63636;44.746;10.488;2023-01-31T00:44:41;47.90;;;19.08;;
75054;SDS011;63636;44.746;10.488;2023-01-31T00:47:07;50.15;;;19.73;;
75054;SDS011;63636;44.746;10.488;2023-01-31T00:49:32;49.85;;;20.48;;
75054;SDS011;63636;44.746;10.488;2023-01-31T00:51:58;49.22;;;19.67;;
75054;SDS011;63636;44.746;10.488;2023-01-31T00:54:23;43.88;;;18.48;;
75054;SDS011;63636;44.746;10.488;2023-01-31T00:56:49;45.97;;;19.00;;
75054;SDS011;63636;44.746;10.488;2023-01-31T00:59:15;45.97;;;19.08;;
75054;SDS011;63636;44.746;10.488;2023-01-31T01:01:40;50.00;;;19.45;;
75054;SDS011;63636;44.746;10.488;2023-01-31T01:04:06;48.75;;;19.45;;
75054;SDS011;63636;44.746;10.488;2023-01-31T01:06:32;45.55;;;19.13;;
75054;SDS011;63636;44.746;10.488;2023-01-31T01:08:58;47.95;;;19.35;;
75054;SDS011;63636;44.746;10.488;2023-01-31T01:11:28;53.05;;;21.02;;
75054;SDS011;63636;44.746;10.488;2023-01-31T01:13:54;53.85;;;21.55;;
75054;SDS011;63636;44.746;10.488;2023-01-31T01:16:22;55.55;;;23.10;;
75054;SDS011;63636;44.746;10.488;2023-01-31T01:18:48;56.70;;;22.83;;
75054;SDS011;63636;44.746;10.488;2023-01-31T01:21:16;57.00;;;23.95;;
75054;SDS011;63636;44.746;10.488;2023-01-31T01:23:41;56.95;;;22.75;;
75054;SDS011;63636;44.746;10.488;2023-01-31T01:26:12;54.78;;;24.20;;
75054;SDS011;63636;44.746;10.488;2023-01-31T01:28:38;57.47;;;22.13;;
75054;SDS011;63636;44.746;10.488;2023-01-31T01:31:04;50.30;;;21.25;;
75054;SDS011;63636;44.746;10.488;2023-01-31T01:33:30;47.90;;;19.73;;
75054;SDS011;63636;44.746;10.488;2023-01-31T01:36:02;51.15;;;19.52;;
75054;SDS011;63636;44.746;10.488;2023-01-31T01:38:28;47.88;;;20.40;;
75054;SDS011;63636;44.746;10.488;2023-01-31T01:40:54;52.33;;;21.88;;
75054;SDS011;63636;44.746;10.488;2023-01-31T01:43:20;55.30;;;22.63;;
75054;SDS011;63636;44.746;10.488;2023-01-31T01:45:46;53.88;;;21.20;;
75054;SDS011;63636;44.746;10.488;2023-01-31T01:48:12;52.47;;;22.05;;
75054;SDS011;63636;44.746;10.488;2023-01-31T01:50:43;55.50;;;23.30;;
75054;SDS011;63636;44.746;10.488;2023-01-31T01:53:16;59.33;;;23.92;;
75054;SDS011;63636;44.746;10.488;2023-01-31T01:55:44;52.53;;;21.63;;
75054;SDS011;63636;44.746;10.488;2023-01-31T01:58:14;53.92;;;22.60;;
75054;SDS011;63636;44.746;10.488;2023-01-31T02:00:40;60.45;;;24.85;;
75054;SDS011;63636;44.746;10.488;2023-01-31T02:03:06;61.83;;;25.70;;
75054;SDS011;63636;44.746;10.488;2023-01-31T02:05:39;58.78;;;23.60;;
75054;SDS011;63636;44.746;10.488;2023-01-31T02:08:09;53.63;;;21.10;;
75054;SDS011;63636;44.746;10.488;2023-01-31T02:10:41;51.15;;;21.15;;
75054;SDS011;63636;44.746;10.488;2023-01-31T02:13:08;51.20;;;21.98;;
75054;SDS011;63636;44.746;10.488;2023-01-31T02:15:34;52.78;;;22.05;;
75054;SDS011;63636;44.746;10.488;2023-01-31T02:18:00;58.92;;;22.40;;
75054;SDS011;63636;44.746;10.488;2023-01-31T02:33:43;44.30;;;19.42;;
75054;SDS011;63636;44.746;10.488;2023-01-31T02:52:40;45.55;;;19.33;;
75054;SDS011;63636;44.746;10.488;2023-01-31T02:58:35;52.28;;;20.95;;
75054;SDS011;63636;44.746;10.488;2023-01-31T03:01:02;46.00;;;19.40;;
75054;SDS011;63636;44.746;10.488;2023-01-31T03:03:30;48.47;;;18.67;;
75054;SDS011;63636;44.746;10.488;2023-01-31T03:09:00;45.08;;;18.75;;
75054;SDS011;63636;44.746;10.488;2023-01-31T03:16:52;48.28;;;20.15;;
75054;SDS011;63636;44.746;10.488;2023-01-31T03:22:14;53.33;;;20.52;;
75054;SDS011;63636;44.746;10.488;2023-01-31T03:24:45;44.85;;;19.33;;
75054;SDS011;63636;44.746;10.488;2023-01-31T03:27:12;55.03;;;21.42;;
75054;SDS011;63636;44.746;10.488;2023-01-31T03:29:39;51.10;;;22.15;;
75054;SDS011;63636;44.746;10.488;2023-01-31T03:32:15;51.08;;;21.73;;
75054;SDS011;63636;44.746;10.488;2023-01-31T03:34:42;53.67;;;21.20;;
75054;SDS011;63636;44.746;10.488;2023-01-31T03:37:16;50.55;;;19.65;;
75054;SDS011;63636;44.746;10.488;2023-01-31T03:47:28;41.08;;;16.95;;
75054;SDS011;63636;44.746;10.488;2023-01-31T03:49:56;41.47;;;18.48;;
75054;SDS011;63636;44.746;10.488;2023-01-31T03:52:28;45.30;;;18.83;;
75054;SDS011;63636;44.746;10.488;2023-01-31T03:54:57;46.55;;;19.08;;
75054;SDS011;63636;44.746;10.488;2023-01-31T03:57:29;44.40;;;19.02;;
75054;SDS011;63636;44.746;10.488;2023-01-31T03:59:56;44.72;;;19.17;;
75054;SDS011;63636;44.746;10.488;2023-01-31T04:02:28;48.55;;;18.38;;
75054;SDS011;63636;44.746;10.488;2023-01-31T04:04:57;46.58;;;18.83;;
75054;SDS011;63636;44.746;10.488;2023-01-31T04:07:29;43.67;;;16.98;;
75054;SDS011;63636;44.746;10.488;2023-01-31T04:09:54;45.88;;;18.08;;
75054;SDS011;63636;44.746;10.488;2023-01-31T04:12:20;46.75;;;18.42;;
75054;SDS011;63636;44.746;10.488;2023-01-31T04:14:45;43.30;;;17.80;;
75054;SDS011;63636;44.746;10.488;2023-01-31T04:17:11;44.67;;;17.98;;
75054;SDS011;63636;44.746;10.488;2023-01-31T04:19:36;40.40;;;17.40;;
75054;SDS011;63636;44.746;10.488;2023-01-31T04:22:02;41.70;;;16.52;;
75054;SDS011;63636;44.746;10.488;2023-01-31T04:24:27;44.85;;;17.75;;
75054;SDS011;63636;44.746;10.488;2023-01-31T04:26:53;43.17;;;17.25;;
75054;SDS011;63636;44.746;10.488;2023-01-31T04:29:18;38.55;;;17.10;;
75054;SDS011;63636;44.746;10.488;2023-01-31T04:31:44;41.28;;;16.67;;
75054;SDS011;63636;44.746;10.488;2023-01-31T04:34:11;41.53;;;17.15;;
75054;SDS011;63636;44.746;10.488;2023-01-31T04:36:36;41.92;;;17.48;;
75054;SDS011;63636;44.746;10.488;2023-01-31T04:39:02;41.75;;;16.73;;
75054;SDS011;63636;44.746;10.488;2023-01-31T04:41:27;38.30;;;16.40;;
75054;SDS011;63636;44.746;10.488;2023-01-31T04:43:53;40.58;;;16.73;;
75054;SDS011;63636;44.746;10.488;2023-01-31T04:46:18;38.53;;;15.88;;
75054;SDS011;63636;44.746;10.488;2023-01-31T04:48:44;40.63;;;16.00;;
75054;SDS011;63636;44.746;10.488;2023-01-31T04:51:09;40.33;;;17.50;;
75054;SDS011;63636;44.746;10.488;2023-01-31T04:53:35;36.63;;;15.13;;
75054;SDS011;63636;44.746;10.488;2023-01-31T04:56:01;37.35;;;15.60;;
75054;SDS011;63636;44.746;10.488;2023-01-31T04:58:27;36.08;;;14.77;;
75054;SDS011;63636;44.746;10.488;2023-01-31T05:00:53;37.20;;;15.43;;
75054;SDS011;63636;44.746;10.488;2023-01-31T05:03:18;36.60;;;15.07;;
75054;SDS011;63636;44.746;10.488;2023-01-31T05:05:46;35.67;;;15.23;;
75054;SDS011;63636;44.746;10.488;2023-01-31T05:08:12;38.90;;;16.50;;
75054;SDS011;63636;44.746;10.488;2023-01-31T05:10:37;42.83;;;17.02;;
75054;SDS011;63636;44.746;10.488;2023-01-31T05:13:03;41.92;;;16.13;;
75054;SDS011;63636;44.746;10.488;2023-01-31T05:15:28;43.13;;;17.30;;
75054;SDS011;63636;44.746;10.488;2023-01-31T05:17:54;39.17;;;15.73;;
75054;SDS011;63636;44.746;10.488;2023-01-31T05:20:29;44.78;;;17.27;;
75054;SDS011;63636;44.746;10.488;2023-01-31T05:22:55;47.00;;;17.08;;
75054;SDS011;63636;44.746;10.488;2023-01-31T05:25:21;40.13;;;16.02;;
75054;SDS011;63636;44.746;10.488;2023-01-31T05:27:46;36.95;;;14.98;;
75054;SDS011;63636;44.746;10.488;2023-01-31T05:30:12;36.15;;;14.75;;
75054;SDS011;63636;44.746;10.488;2023-01-31T05:32:37;39.30;;;15.27;;
75054;SDS011;63636;44.746;10.488;2023-01-31T05:35:04;35.42;;;15.10;;
75054;SDS011;63636;44.746;10.488;2023-01-31T05:37:30;35.10;;;13.65;;
75054;SDS011;63636;44.746;10.488;2023-01-31T05:39:55;41.55;;;15.18;;
75054;SDS011;63636;44.746;10.488;2023-01-31T05:42:21;34.92;;;13.88;;
75054;SDS011;63636;44.746;10.488;2023-01-31T05:44:46;35.15;;;14.02;;
75054;SDS011;63636;44.746;10.488;2023-01-31T05:47:12;35.83;;;14.38;;
75054;SDS011;63636;44.746;10.488;2023-01-31T05:49:37;33.55;;;13.82;;
75054;SDS011;63636;44.746;10.488;2023-01-31T05:52:03;35.30;;;14.07;;
75054;SDS011;63636;44.746;10.488;2023-01-31T05:54:29;35.05;;;14.40;;
75054;SDS011;63636;44.746;10.488;2023-01-31T05:56:54;31.67;;;13.07;;
75054;SDS011;63636;44.746;10.488;2023-01-31T05:59:20;30.15;;;13.32;;
75054;SDS011;63636;44.746;10.488;2023-01-31T06:01:45;32.50;;;13.68;;
75054;SDS011;63636;44.746;10.488;2023-01-31T06:04:11;36.00;;;14.48;;
75054;SDS011;63636;44.746;10.488;2023-01-31T06:06:36;32.20;;;13.73;;
75054;SDS011;63636;44.746;10.488;2023-01-31T06:09:02;34.08;;;12.98;;
75054;SDS011;63636;44.746;10.488;2023-01-31T06:11:28;34.88;;;13.57;;
75054;SDS011;63636;44.746;10.488;2023-01-31T06:13:53;34.65;;;13.73;;
75054;SDS011;63636;44.746;10.488;2023-01-31T06:16:22;37.95;;;13.25;;
75054;SDS011;63636;44.746;10.488;2023-01-31T06:18:47;32.85;;;12.90;;
75054;SDS011;63636;44.746;10.488;2023-01-31T06:21:13;32.17;;;12.55;;
75054;SDS011;63636;44.746;10.488;2023-01-31T06:23:40;35.35;;;13.65;;
75054;SDS011;63636;44.746;10.488;2023-01-31T06:26:10;29.33;;;12.75;;
75054;SDS011;63636;44.746;10.488;2023-01-31T06:28:36;33.15;;;13.27;;
75054;SDS011;63636;44.746;10.488;2023-01-31T06:31:05;34.00;;;13.00;;
75054;SDS011;63636;44.746;10.488;2023-01-31T06:33:31;35.45;;;14.00;;
75054;SDS011;63636;44.746;10.488;2023-01-31T06:36:00;34.10;;;13.27;;
75054;SDS011;63636;44.746;10.488;2023-01-31T06:38:26;31.05;;;12.73;;
75054;SDS011;63636;44.746;10.488;2023-01-31T06:40:52;32.33;;;13.10;;
75054;SDS011;63636;44.746;10.488;2023-01-31T06:43:17;32.42;;;13.10;;
75054;SDS011;63636;44.746;10.488;2023-01-31T06:45:43;34.97;;;13.93;;
75054;SDS011;63636;44.746;10.488;2023-01-31T06:48:09;30.52;;;12.73;;
75054;SDS011;63636;44.746;10.488;2023-01-31T06:50:35;30.73;;;12.63;;
75054;SDS011;63636;44.746;10.488;2023-01-31T06:53:00;35.63;;;12.85;;
75054;SDS011;63636;44.746;10.488;2023-01-31T06:55:26;31.35;;;12.60;;
75054;SDS011;63636;44.746;10.488;2023-01-31T06:57:51;37.67;;;12.43;;
75054;SDS011;63636;44.746;10.488;2023-01-31T07:00:17;33.33;;;12.40;;
75054;SDS011;63636;44.746;10.488;2023-01-31T07:02:44;32.63;;;12.23;;
75054;SDS011;63636;44.746;10.488;2023-01-31T07:05:09;37.00;;;12.80;;
75054;SDS011;63636;44.746;10.488;2023-01-31T07:07:35;33.83;;;12.27;;
75054;SDS011;63636;44.746;10.488;2023-01-31T07:10:00;32.47;;;12.48;;
75054;SDS011;63636;44.746;10.488;2023-01-31T07:12:26;29.38;;;12.18;;
75054;SDS011;63636;44.746;10.488;2023-01-31T07:14:51;32.55;;;11.50;;
75054;SDS011;63636;44.746;10.488;2023-01-31T07:17:17;26.63;;;10.73;;
75054;SDS011;63636;44.746;10.488;2023-01-31T07:19:45;28.63;;;10.70;;
75054;SDS011;63636;44.746;10.488;2023-01-31T07:22:11;26.60;;;10.93;;
75054;SDS011;63636;44.746;10.488;2023-01-31T07:24:36;26.80;;;11.30;;
75054;SDS011;63636;44.746;10.488;2023-01-31T07:27:01;24.02;;;9.77;;
75054;SDS011;63636;44.746;10.488;2023-01-31T07:29:27;28.05;;;11.23;;
75054;SDS011;63636;44.746;10.488;2023-01-31T07:31:53;25.15;;;10.23;;
75054;SDS011;63636;44.746;10.488;2023-01-31T07:34:18;27.10;;;10.80;;
75054;SDS011;63636;44.746;10.488;2023-01-31T07:36:50;26.92;;;10.13;;
75054;SDS011;63636;44.746;10.488;2023-01-31T07:39:16;22.85;;;9.43;;
75054;SDS011;63636;44.746;10.488;2023-01-31T07:41:41;21.63;;;9.10;;
75054;SDS011;63636;44.746;10.488;2023-01-31T07:44:07;20.58;;;9.00;;
75054;SDS011;63636;44.746;10.488;2023-01-31T07:46:34;25.88;;;9.30;;
75054;SDS011;63636;44.746;10.488;2023-01-31T07:49:00;22.90;;;9.38;;
75054;SDS011;63636;44.746;10.488;2023-01-31T07:51:26;21.38;;;9.55;;
75054;SDS011;63636;44.746;10.488;2023-01-31T07:53:51;26.20;;;8.73;;
75054;SDS011;63636;44.746;10.488;2023-01-31T07:56:18;23.40;;;9.15;;
75054;SDS011;63636;44.746;10.488;2023-01-31T07:58:45;23.27;;;8.93;;
75054;SDS011;63636;44.746;10.488;2023-01-31T08:04:01;21.73;;;9.27;;
75054;SDS011;63636;44.746;10.488;2023-01-31T08:06:27;20.50;;;8.20;;
75054;SDS011;63636;44.746;10.488;2023-01-31T08:08:54;19.58;;;8.30;;
75054;SDS011;63636;44.746;10.488;2023-01-31T08:11:20;17.25;;;7.50;;
75054;SDS011;63636;44.746;10.488;2023-01-31T08:13:45;18.35;;;8.27;;
75054;SDS011;63636;44.746;10.488;2023-01-31T08:16:11;17.95;;;8.48;;
75054;SDS011;63636;44.746;10.488;2023-01-31T08:18:37;18.85;;;8.43;;
75054;SDS011;63636;44.746;10.488;2023-01-31T08:24:31;21.92;;;9.75;;
75054;SDS011;63636;44.746;10.488;2023-01-31T08:26:56;25.17;;;9.77;;
75054;SDS011;63636;44.746;10.488;2023-01-31T08:29:22;21.50;;;9.57;;
75054;SDS011;63636;44.746;10.488;2023-01-31T08:31:49;21.73;;;8.52;;
75054;SDS011;63636;44.746;10.488;2023-01-31T08:34:14;21.27;;;9.25;;
75054;SDS011;63636;44.746;10.488;2023-01-31T08:36:40;21.48;;;9.35;;
75054;SDS011;63636;44.746;10.488;2023-01-31T08:39:05;19.05;;;9.70;;
75054;SDS011;63636;44.746;10.488;2023-01-31T08:41:32;22.15;;;9.95;;
75054;SDS011;63636;44.746;10.488;2023-01-31T08:43:58;22.35;;;9.55;;
75054;SDS011;63636;44.746;10.488;2023-01-31T08:46:24;26.48;;;10.02;;
75054;SDS011;63636;44.746;10.488;2023-01-31T08:48:50;27.90;;;10.60;;
75054;SDS011;63636;44.746;10.488;2023-01-31T08:51:16;24.25;;;9.75;;
75054;SDS011;63636;44.746;10.488;2023-01-31T08:53:43;21.05;;;10.05;;
75054;SDS011;63636;44.746;10.488;2023-01-31T08:56:09;23.48;;;9.93;;
75054;SDS011;63636;44.746;10.488;2023-01-31T08:58:36;23.40;;;10.55;;
75054;SDS011;63636;44.746;10.488;2023-01-31T09:01:02;22.10;;;9.95;;
75054;SDS011;63636;44.746;10.488;2023-01-31T09:03:28;21.45;;;9.70;;
75054;SDS011;63636;44.746;10.488;2023-01-31T09:05:57;23.75;;;10.10;;
75054;SDS011;63636;44.746;10.488;2023-01-31T09:08:22;20.85;;;9.20;;
75054;SDS011;63636;44.746;10.488;2023-01-31T09:10:54;21.33;;;9.85;;
75054;SDS011;63636;44.746;10.488;2023-01-31T09:13:20;18.90;;;9.73;;
75054;SDS011;63636;44.746;10.488;2023-01-31T09:15:45;22.85;;;9.85;;
75054;SDS011;63636;44.746;10.488;2023-01-31T09:18:11;22.60;;;10.30;;
75054;SDS011;63636;44.746;10.488;2023-01-31T09:20:36;21.00;;;11.23;;
75054;SDS011;63636;44.746;10.488;2023-01-31T09:23:02;20.70;;;9.63;;
75054;SDS011;63636;44.746;10.488;2023-01-31T09:25:27;21.02;;;9.80;;
75054;SDS011;63636;44.746;10.488;2023-01-31T09:27:53;20.25;;;9.63;;
75054;SDS011;63636;44.746;10.488;2023-01-31T09:30:19;21.77;;;10.85;;
75054;SDS011;63636;44.746;10.488;2023-01-31T09:32:44;21.52;;;9.88;;
75054;SDS011;63636;44.746;10.488;2023-01-31T09:35:11;22.65;;;10.32;;
75054;SDS011;63636;44.746;10.488;2023-01-31T09:37:36;22.65;;;10.13;;
75054;SDS011;63636;44.746;10.488;2023-01-31T09:40:03;21.98;;;10.07;;
75054;SDS011;63636;44.746;10.488;2023-01-31T09:44:59;22.25;;;11.10;;
75054;SDS011;63636;44.746;10.488;2023-01-31T09:47:27;24.33;;;10.63;;
75054;SDS011;63636;44.746;10.488;2023-01-31T09:49:55;21.20;;;10.35;;
75054;SDS011;63636;44.746;10.488;2023-01-31T09:52:22;23.60;;;10.77;;
75054;SDS011;63636;44.746;10.488;2023-01-31T09:54:48;20.50;;;10.15;;
75054;SDS011;63636;44.746;10.488;2023-01-31T09:59:42;19.70;;;10.02;;
75054;SDS011;63636;44.746;10.488;2023-01-31T10:07:28;22.30;;;10.93;;
75054;SDS011;63636;44.746;10.488;2023-01-31T10:15:39;28.95;;;13.07;;
75054;SDS011;63636;44.746;10.488;2023-01-31T10:18:15;27.23;;;12.60;;
75054;SDS011;63636;44.746;10.488;2023-01-31T10:23:20;26.75;;;13.35;;
75054;SDS011;63636;44.746;10.488;2023-01-31T10:28:13;30.85;;;14.30;;
75054;SDS011;63636;44.746;10.488;2023-01-31T10:31:02;27.73;;;13.00;;
75054;SDS011;63636;44.746;10.488;2023-01-31T10:36:31;30.67;;;14.50;;
75054;SDS011;63636;44.746;10.488;2023-01-31T10:39:03;33.67;;;15.05;;
75054;SDS011;63636;44.746;10.488;2023-01-31T10:43:58;28.48;;;14.50;;
75054;SDS011;63636;44.746;10.488;2023-01-31T10:46:24;30.17;;;14.40;;
75054;SDS011;63636;44.746;10.488;2023-01-31T10:48:50;28.10;;;14.13;;
75054;SDS011;63636;44.746;10.488;2023-01-31T10:56:19;29.38;;;15.18;;
75054;SDS011;63636;44.746;10.488;2023-01-31T10:58:47;30.88;;;15.15;;
75054;SDS011;63636;44.746;10.488;2023-01-31T11:01:14;37.53;;;16.70;;
75054;SDS011;63636;44.746;10.488;2023-01-31T11:03:40;35.42;;;17.02;;
75054;SDS011;63636;44.746;10.488;2023-01-31T11:06:10;36.25;;;17.70;;
75054;SDS011;63636;44.746;10.488;2023-01-31T11:08:41;35.28;;;17.80;;
75054;SDS011;63636;44.746;10.488;2023-01-31T11:11:17;38.90;;;18.35;;
75054;SDS011;63636;44.746;10.488;2023-01-31T11:16:25;44.45;;;18.85;;
75054;SDS011;63636;44.746;10.488;2023-01-31T11:18:50;36.72;;;17.63;;
75054;SDS011;63636;44.746;10.488;2023-01-31T11:21:21;40.50;;;17.95;;
75054;SDS011;63636;44.746;10.488;2023-01-31T11:23:47;38.92;;;18.55;;
75054;SDS011;63636;44.746;10.488;2023-01-31T11:26:23;40.13;;;18.25;;
75054;SDS011;63636;44.746;10.488;2023-01-31T11:28:49;40.38;;;18.40;;
75054;SDS011;63636;44.746;10.488;2023-01-31T11:31:18;35.25;;;17.17;;
75054;SDS011;63636;44.746;10.488;2023-01-31T11:33:45;36.10;;;18.70;;
75054;SDS011;63636;44.746;10.488;2023-01-31T11:36:19;37.92;;;18.02;;
75054;SDS011;63636;44.746;10.488;2023-01-31T11:38:47;35.83;;;18.33;;
75054;SDS011;63636;44.746;10.488;2023-01-31T11:41:27;36.95;;;17.60;;
75054;SDS011;63636;44.746;10.488;2023-01-31T11:46:43;38.45;;;18.40;;
75054;SDS011;63636;44.746;10.488;2023-01-31T11:49:11;40.58;;;18.55;;
75054;SDS011;63636;44.746;10.488;2023-01-31T11:51:37;37.58;;;18.33;;
75054;SDS011;63636;44.746;10.488;2023-01-31T11:54:04;37.38;;;18.85;;
75054;SDS011;63636;44.746;10.488;2023-01-31T11:56:33;37.13;;;18.25;;
75054;SDS011;63636;44.746;10.488;2023-01-31T11:59:02;39.53;;;19.52;;
75054;SDS011;63636;44.746;10.488;2023-01-31T12:01:31;41.08;;;19.48;;
75054;SDS011;63636;44.746;10.488;2023-01-31T12:04:00;40.97;;;20.33;;
75054;SDS011;63636;44.746;10.488;2023-01-31T12:06:32;42.20;;;19.83;;
75054;SDS011;63636;44.746;10.488;2023-01-31T12:08:58;40.20;;;19.55;;
75054;SDS011;63636;44.746;10.488;2023-01-31T12:11:34;35.60;;;19.50;;
75054;SDS011;63636;44.746;10.488;2023-01-31T12:16:31;33.00;;;17.60;;
75054;SDS011;63636;44.746;10.488;2023-01-31T12:21:45;32.85;;;16.88;;
75054;SDS011;63636;44.746;10.488;2023-01-31T12:24:23;32.08;;;16.42;;
75054;SDS011;63636;44.746;10.488;2023-01-31T12:26:52;28.45;;;15.07;;
75054;SDS011;63636;44.746;10.488;2023-01-31T12:34:56;28.20;;;14.95;;
75054;SDS011;63636;44.746;10.488;2023-01-31T12:44:49;30.92;;;15.25;;
75054;SDS011;63636;44.746;10.488;2023-01-31T12:47:32;31.27;;;16.17;;
75054;SDS011;63636;44.746;10.488;2023-01-31T12:50:02;30.23;;;16.77;;
75054;SDS011;63636;44.746;10.488;2023-01-31T12:57:44;32.75;;;17.23;;
75054;SDS011;63636;44.746;10.488;2023-01-31T13:02:42;32.10;;;17.00;;
75054;SDS011;63636;44.746;10.488;2023-01-31T13:07:46;32.10;;;17.08;;
75054;SDS011;63636;44.746;10.488;2023-01-31T13:12:57;37.95;;;18.77;;
75054;SDS011;63636;44.746;10.488;2023-01-31T13:15:36;33.33;;;18.05;;
75054;SDS011;63636;44.746;10.488;2023-01-31T13:18:04;36.60;;;17.95;;
75054;SDS011;63636;44.746;10.488;2023-01-31T13:20:38;34.95;;;18.30;;
75054;SDS011;63636;44.746;10.488;2023-01-31T13:23:08;36.78;;;19.27;;
75054;SDS011;63636;44.746;10.488;2023-01-31T13:25:39;37.88;;;19.65;;
75054;SDS011;63636;44.746;10.488;2023-01-31T13:28:16;34.20;;;18.90;;
75054;SDS011;63636;44.746;10.488;2023-01-31T13:30:59;35.17;;;18.35;;
75054;SDS011;63636;44.746;10.488;2023-01-31T13:38:25;36.97;;;18.17;;
75054;SDS011;63636;44.746;10.488;2023-01-31T13:40:53;40.25;;;18.23;;
75054;SDS011;63636;44.746;10.488;2023-01-31T13:43:20;40.47;;;18.88;;
75054;SDS011;63636;44.746;10.488;2023-01-31T13:45:47;37.92;;;19.85;;
75054;SDS011;63636;44.746;10.488;2023-01-31T13:48:22;36.40;;;18.85;;
75054;SDS011;63636;44.746;10.488;2023-01-31T13:50:54;35.25;;;19.40;;
75054;SDS011;63636;44.746;10.488;2023-01-31T13:53:25;35.95;;;19.67;;
75054;SDS011;63636;44.746;10.488;2023-01-31T13:55:52;33.38;;;17.73;;
75054;SDS011;63636;44.746;10.488;2023-01-31T14:00:47;36.65;;;18.67;;
75054;SDS011;63636;44.746;10.488;2023-01-31T14:03:18;36.65;;;19.08;;
75054;SDS011;63636;44.746;10.488;2023-01-31T14:10:52;42.92;;;20.63;;
75054;SDS011;63636;44.746;10.488;2023-01-31T14:13:37;41.75;;;21.77;;
75054;SDS011;63636;44.746;10.488;2023-01-31T14:16:03;41.10;;;21.58;;
75054;SDS011;63636;44.746;10.488;2023-01-31T14:23:48;39.28;;;20.17;;
75054;SDS011;63636;44.746;10.488;2023-01-31T14:28:57;39.95;;;21.00;;
75054;SDS011;63636;44.746;10.488;2023-01-31T14:31:23;40.60;;;20.35;;
75054;SDS011;63636;44.746;10.488;2023-01-31T14:33:51;42.47;;;21.25;;
75054;SDS011;63636;44.746;10.488;2023-01-31T14:38:49;45.28;;;22.50;;
75054;SDS011;63636;44.746;10.488;2023-01-31T14:58:43;48.60;;;24.50;;
75054;SDS011;63636;44.746;10.488;2023-01-31T15:01:10;50.63;;;25.15;;
75054;SDS011;63636;44.746;10.488;2023-01-31T15:03:37;49.30;;;23.48;;
75054;SDS011;63636;44.746;10.488;2023-01-31T15:08:45;47.15;;;23.73;;
75054;SDS011;63636;44.746;10.488;2023-01-31T15:16:09;49.55;;;23.80;;
75054;SDS011;63636;44.746;10.488;2023-01-31T15:18:35;49.05;;;24.25;;
75054;SDS011;63636;44.746;10.488;2023-01-31T15:21:02;50.10;;;24.02;;
75054;SDS011;63636;44.746;10.488;2023-01-31T15:23:30;44.70;;;23.17;;
75054;SDS011;63636;44.746;10.488;2023-01-31T15:25:57;46.95;;;23.83;;
75054;SDS011;63636;44.746;10.488;2023-01-31T15:28:27;50.50;;;23.92;;
75054;SDS011;63636;44.746;10.488;2023-01-31T15:30:57;51.33;;;24.40;;
75054;SDS011;63636;44.746;10.488;2023-01-31T15:33:25;50.65;;;24.77;;
75054;SDS011;63636;44.746;10.488;2023-01-31T15:40:44;51.65;;;24.33;;
75054;SDS011;63636;44.746;10.488;2023-01-31T15:43:23;49.10;;;23.65;;
75054;SDS011;63636;44.746;10.488;2023-01-31T15:45:49;50.47;;;24.48;;
75054;SDS011;63636;44.746;10.488;2023-01-31T15:48:18;50.88;;;24.05;;
75054;SDS011;63636;44.746;10.488;2023-01-31T15:53:16;53.65;;;24.67;;
75054;SDS011;63636;44.746;10.488;2023-01-31T15:55:44;46.38;;;23.30;;
75054;SDS011;63636;44.746;10.488;2023-01-31T15:58:21;49.45;;;23.20;;
75054;SDS011;63636;44.746;10.488;2023-01-31T16:00:48;48.38;;;23.30;;
75054;SDS011;63636;44.746;10.488;2023-01-31T16:03:19;49.42;;;23.73;;
75054;SDS011;63636;44.746;10.488;2023-01-31T16:05:47;49.83;;;23.15;;
75054;SDS011;63636;44.746;10.488;2023-01-31T16:10:46;45.45;;;22.95;;
75054;SDS011;63636;44.746;10.488;2023-01-31T16:13:12;45.00;;;22.58;;
75054;SDS011;63636;44.746;10.488;2023-01-31T16:15:38;46.13;;;22.92;;
75054;SDS011;63636;44.746;10.488;2023-01-31T16:18:06;44.97;;;21.98;;
75054;SDS011;63636;44.746;10.488;2023-01-31T16:20:38;47.22;;;23.15;;
75054;SDS011;63636;44.746;10.488;2023-01-31T16:23:04;47.08;;;22.40;;
75054;SDS011;63636;44.746;10.488;2023-01-31T16:25:32;46.72;;;22.80;;
75054;SDS011;63636;44.746;10.488;2023-01-31T16:28:02;55.70;;;24.77;;
75054;SDS011;63636;44.746;10.488;2023-01-31T16:30:27;59.88;;;27.77;;
75054;SDS011;63636;44.746;10.488;2023-01-31T16:32:56;57.88;;;25.65;;
75054;SDS011;63636;44.746;10.488;2023-01-31T16:38:22;51.53;;;23.85;;
75054;SDS011;63636;44.746;10.488;2023-01-31T16:41:03;48.92;;;23.85;;
75054;SDS011;63636;44.746;10.488;2023-01-31T16:43:45;51.53;;;23.70;;
75054;SDS011;63636;44.746;10.488;2023-01-31T16:46:46;52.33;;;24.75;;
75054;SDS011;63636;44.746;10.488;2023-01-31T16:49:28;53.95;;;25.50;;
75054;SDS011;63636;44.746;10.488;2023-01-31T16:52:15;56.25;;;26.38;;
75054;SDS011;63636;44.746;10.488;2023-01-31T16:54:53;55.03;;;25.92;;
75054;SDS011;63636;44.746;10.488;2023-01-31T16:57:33;60.50;;;27.13;;
75054;SDS011;63636;44.746;10.488;2023-01-31T17:00:05;52.95;;;25.63;;
75054;SDS011;63636;44.746;10.488;2023-01-31T17:02:32;62.53;;;27.17;;
75054;SDS011;63636;44.746;10.488;2023-01-31T17:05:00;60.38;;;27.67;;
75054;SDS011;63636;44.746;10.488;2023-01-31T17:07:45;70.20;;;31.00;;
75054;SDS011;63636;44.746;10.488;2023-01-31T17:10:20;64.63;;;27.75;;
75054;SDS011;63636;44.746;10.488;2023-01-31T17:12:58;74.72;;;33.65;;
75054;SDS011;63636;44.746;10.488;2023-01-31T17:15:29;84.95;;;36.70;;
75054;SDS011;63636;44.746;10.488;2023-01-31T17:18:09;68.65;;;33.63;;
75054;SDS011;63636;44.746;10.488;2023-01-31T17:21:40;70.82;;;32.00;;
75054;SDS011;63636;44.746;10.488;2023-01-31T17:24:26;64.78;;;31.85;;